Time;durP1;ratioP1;P1;durP2;ratioP2;P2;SDS_P1;SDS_P2;PMS_P1;PMS_P2;Temp;Humidity;BMP_temperature;BMP_pressure;BME280_temperature;BME280_humidity;BME280_pressure;Samples;Min_cycle;Max_cycle;Signal;HPM_P1;HPM_P2
2023/05/05 00:01:53;;;;;;;10.67;7.17;;;8.90;1.00;;;;;;6124022;23;20662;-89
2023/05/05 00:04:21;;;;;;;8.17;6.60;;;8.80;1.00;;;;;;6122815;23;20278;-88
2023/05/05 00:06:47;;;;;;;8.07;6.53;;;8.70;1.00;;;;;;6122665;23;20250;-88
2023/05/05 00:09:13;;;;;;;8.47;7.47;;;8.70;1.00;;;;;;6122447;23;20214;-89
2023/05/05 00:11:38;;;;;;;6.97;6.27;;;8.60;1.00;;;;;;6121842;23;20195;-89
2023/05/05 00:14:05;;;;;;;7.37;6.60;;;8.60;1.00;;;;;;6122582;23;20592;-88
2023/05/05 00:16:31;;;;;;;7.73;6.80;;;8.60;1.00;;;;;;6122081;23;20171;-89
2023/05/05 00:18:56;;;;;;;9.07;6.63;;;8.70;1.00;;;;;;6122307;23;20195;-88
2023/05/05 00:21:22;;;;;;;8.50;6.50;;;8.80;1.00;;;;;;6121623;23;20238;-88
2023/05/05 00:23:47;;;;;;;7.27;6.50;;;8.90;1.00;;;;;;6148421;23;20156;-87
2023/05/05 00:26:13;;;;;;;8.47;7.50;;;8.70;1.00;;;;;;6121920;23;20171;-90
2023/05/05 00:28:39;;;;;;;7.87;6.83;;;8.70;1.00;;;;;;6122283;23;20198;-87
2023/05/05 00:31:05;;;;;;;9.00;6.80;;;8.60;1.00;;;;;;6121437;23;20210;-89
2023/05/05 00:33:30;;;;;;;9.87;7.10;;;8.90;1.00;;;;;;6122139;23;20270;-87
2023/05/05 00:35:56;;;;;;;7.33;6.63;;;8.50;1.00;;;;;;6148040;23;20190;-89
2023/05/05 00:38:22;;;;;;;6.63;6.00;;;8.50;1.00;;;;;;6122338;23;20160;-89
2023/05/05 00:40:48;;;;;;;8.13;6.80;;;8.50;1.00;;;;;;6147661;23;20233;-89
2023/05/05 00:43:14;;;;;;;7.73;6.93;;;8.40;1.00;;;;;;6121628;23;20255;-86
2023/05/05 00:45:43;;;;;;;7.83;7.03;;;8.40;1.00;;;;;;6122038;23;20164;-89
2023/05/05 00:48:08;;;;;;;9.63;6.60;;;8.40;1.00;;;;;;6121940;23;20429;-89
2023/05/05 00:50:35;;;;;;;8.83;6.57;;;8.40;1.00;;;;;;6121544;23;20191;-88
2023/05/05 00:53:03;;;;;;;7.63;6.93;;;8.50;1.00;;;;;;6122126;23;20175;-87
2023/05/05 00:55:30;;;;;;;7.97;6.63;;;8.50;1.00;;;;;;6122264;23;20171;-89
2023/05/05 00:58:00;;;;;;;7.70;6.33;;;8.40;1.00;;;;;;6122024;23;20511;-85
2023/05/05 01:00:27;;;;;;;6.97;6.27;;;8.40;1.00;;;;;;6122011;23;20173;-89
2023/05/05 01:02:52;;;;;;;7.80;6.13;;;8.40;1.00;;;;;;6121813;23;20523;-89
2023/05/05 01:05:19;;;;;;;7.63;6.40;;;8.40;1.00;;;;;;6122068;23;20156;-88
2023/05/05 01:08:16;;;;;;;6.60;6.00;;;8.40;1.00;;;;;;6121786;23;20604;-88
2023/05/05 01:10:51;;;;;;;7.03;6.33;;;8.40;1.00;;;;;;6121410;23;20180;-88
2023/05/05 01:13:44;;;;;;;8.77;6.73;;;8.30;1.00;;;;;;6121855;23;20179;-87
2023/05/05 01:16:29;;;;;;;9.10;6.83;;;8.30;1.00;;;;;;6116224;23;20168;-89
2023/05/05 01:19:17;;;;;;;8.60;6.70;;;8.30;1.00;;;;;;6122078;23;20158;-88
2023/05/05 01:21:48;;;;;;;8.97;6.73;;;8.20;1.00;;;;;;6121194;23;20176;-88
2023/05/05 01:24:29;;;;;;;7.33;6.63;;;8.20;1.00;;;;;;6121651;23;20177;-87
2023/05/05 01:27:05;;;;;;;6.63;5.93;;;8.20;1.00;;;;;;6147854;23;20167;-89
2023/05/05 01:29:39;;;;;;;7.50;6.27;;;8.30;1.00;;;;;;6121290;23;20461;-89
2023/05/05 01:32:10;;;;;;;7.43;6.27;;;8.20;1.00;;;;;;6121273;23;20638;-87
2023/05/05 01:34:48;;;;;;;6.70;6.10;;;8.20;1.00;;;;;;6121605;23;20224;-88
2023/05/05 01:37:25;;;;;;;7.37;5.77;;;8.40;1.00;;;;;;6121843;23;20191;-89
2023/05/05 01:39:57;;;;;;;7.40;5.83;;;8.40;1.00;;;;;;6121323;23;20155;-89
2023/05/05 01:42:25;;;;;;;8.77;6.37;;;8.40;1.00;;;;;;6121227;23;20671;-88
2023/05/05 01:44:52;;;;;;;6.80;5.60;;;8.30;1.00;;;;;;6121344;23;20163;-87
2023/05/05 01:47:21;;;;;;;7.37;5.97;;;8.30;1.00;;;;;;6121539;23;20170;-89
2023/05/05 01:49:47;;;;;;;6.47;5.80;;;8.20;1.00;;;;;;6121583;23;20164;-86
2023/05/05 01:52:17;;;;;;;6.97;6.37;;;8.20;1.00;;;;;;6121206;23;20207;-87
2023/05/05 01:54:44;;;;;;;6.63;6.03;;;8.20;1.00;;;;;;6121471;23;20159;-89
2023/05/05 01:57:11;;;;;;;8.17;5.93;;;8.10;1.00;;;;;;6121506;23;20251;-89
2023/05/05 01:59:38;;;;;;;6.53;5.93;;;8.10;1.00;;;;;;6120322;23;20218;-88
2023/05/05 02:02:07;;;;;;;8.87;5.60;;;8.60;1.00;;;;;;6120686;23;20193;-90
2023/05/05 02:04:34;;;;;;;7.50;5.77;;;8.10;1.00;;;;;;6120113;23;20254;-89
2023/05/05 02:07:02;;;;;;;6.43;5.80;;;8.10;1.00;;;;;;6126019;23;20223;-88
2023/05/05 02:10:05;;;;;;;7.83;5.67;;;8.20;1.00;;;;;;6128755;23;20167;-89
2023/05/05 02:12:34;;;;;;;7.33;5.37;;;8.20;1.00;;;;;;6128815;23;20531;-89
2023/05/05 02:15:01;;;;;;;6.07;5.47;;;8.20;1.00;;;;;;6128837;23;20573;-89
2023/05/05 02:17:29;;;;;;;8.13;5.53;;;8.10;1.00;;;;;;6128745;23;20179;-88
2023/05/05 02:19:57;;;;;;;6.53;5.37;;;8.10;1.00;;;;;;6128745;23;20227;-89
2023/05/05 02:22:23;;;;;;;7.87;5.53;;;8.10;1.00;;;;;;6128626;23;20179;-88
2023/05/05 02:24:49;;;;;;;8.00;5.50;;;8.10;1.00;;;;;;6154613;23;20210;-88
2023/05/05 02:27:17;;;;;;;7.63;4.97;;;8.00;1.00;;;;;;6154747;23;20156;-88
2023/05/05 02:29:50;;;;;;;6.13;5.37;;;8.10;1.00;;;;;;6128691;23;20492;-88
2023/05/05 02:32:24;;;;;;;6.27;5.30;;;8.10;1.00;;;;;;6128758;23;20198;-88
2023/05/05 02:34:51;;;;;;;5.60;5.00;;;8.10;1.00;;;;;;6129138;23;20564;-89
2023/05/05 02:37:22;;;;;;;6.40;5.37;;;8.60;1.00;;;;;;6128772;23;20583;-89
2023/05/05 02:39:57;;;;;;;6.37;5.43;;;8.10;1.00;;;;;;6128711;23;20144;-88
2023/05/05 02:42:27;;;;;;;6.97;5.80;;;8.20;1.00;;;;;;6128624;23;20199;-89
2023/05/05 02:44:56;;;;;;;7.83;5.13;;;8.30;1.00;;;;;;6129030;23;20496;-89
2023/05/05 02:47:26;;;;;;;8.53;5.20;;;8.50;1.00;;;;;;6130570;23;20596;-88
2023/05/05 02:49:52;;;;;;;5.50;5.00;;;8.40;1.00;;;;;;6130519;23;20231;-88
2023/05/05 02:52:17;;;;;;;7.57;6.13;;;8.40;1.00;;;;;;6130526;23;20233;-88
2023/05/05 02:54:43;;;;;;;6.70;5.40;;;8.30;1.00;;;;;;6156477;23;20148;-87
2023/05/05 02:57:13;;;;;;;6.87;6.17;;;8.20;1.00;;;;;;6130884;23;20217;-88
2023/05/05 03:00:04;;;;;;;8.70;5.90;;;8.20;1.00;;;;;;6130616;23;20198;-88
2023/05/05 03:02:44;;;;;;;8.83;5.73;;;8.20;1.00;;;;;;6156379;23;20176;-88
2023/05/05 03:05:16;;;;;;;7.47;5.83;;;8.10;1.00;;;;;;6130434;23;20152;-88
2023/05/05 03:07:52;;;;;;;6.60;6.00;;;8.20;1.00;;;;;;6130240;23;20154;-88
2023/05/05 03:10:21;;;;;;;6.40;5.50;;;8.10;1.00;;;;;;6130485;23;20179;-88
2023/05/05 03:12:51;;;;;;;7.87;5.70;;;8.00;1.00;;;;;;6130279;23;20175;-88
2023/05/05 03:15:21;;;;;;;9.77;6.83;;;7.90;1.00;;;;;;6130384;23;20144;-88
2023/05/05 03:17:47;;;;;;;8.33;6.30;;;7.90;1.00;;;;;;6130645;23;20175;-89
2023/05/05 03:20:13;;;;;;;8.07;5.57;;;7.80;1.00;;;;;;6130821;23;20596;-89
2023/05/05 03:22:39;;;;;;;8.80;5.93;;;7.80;1.00;;;;;;6130191;23;20186;-89
2023/05/05 03:25:05;;;;;;;6.80;5.70;;;7.70;1.00;;;;;;6130560;23;20163;-89
2023/05/05 03:27:31;;;;;;;6.73;6.03;;;7.70;1.00;;;;;;6130502;23;20168;-89
2023/05/05 03:29:56;;;;;;;6.23;5.63;;;7.80;1.00;;;;;;6130158;23;20211;-87
2023/05/05 03:32:23;;;;;;;6.40;5.70;;;7.80;1.00;;;;;;6130406;23;20186;-87
2023/05/05 03:34:49;;;;;;;7.00;6.07;;;7.90;1.00;;;;;;6130376;23;20562;-87
2023/05/05 03:37:14;;;;;;;6.30;5.70;;;7.90;1.00;;;;;;6130947;23;20155;-88
2023/05/05 03:39:40;;;;;;;5.80;5.23;;;7.80;1.00;;;;;;6130441;23;20163;-87
2023/05/05 03:42:05;;;;;;;6.63;6.03;;;7.90;1.00;;;;;;6130033;23;20180;-87
2023/05/05 03:44:31;;;;;;;6.53;5.83;;;7.90;1.00;;;;;;6130333;23;20240;-88
2023/05/05 03:46:56;;;;;;;7.03;5.70;;;7.90;1.00;;;;;;6130254;23;20168;-88
2023/05/05 03:49:22;;;;;;;10.63;5.97;;;8.00;1.00;;;;;;6130165;23;20159;-88
2023/05/05 03:51:48;;;;;;;6.30;5.60;;;7.90;1.00;;;;;;6129887;23;20247;-87
2023/05/05 03:54:13;;;;;;;6.47;5.60;;;8.00;1.00;;;;;;6130327;23;20295;-87
2023/05/05 03:56:39;;;;;;;6.23;5.57;;;8.00;1.00;;;;;;6129926;23;20195;-88
2023/05/05 03:59:05;;;;;;;6.43;5.30;;;8.00;1.00;;;;;;6130217;23;20159;-88
2023/05/05 04:01:31;;;;;;;5.80;5.30;;;8.00;1.00;;;;;;6156241;23;20179;-88
2023/05/05 04:03:56;;;;;;;6.40;5.53;;;8.10;1.00;;;;;;6130117;23;20162;-87
2023/05/05 04:06:22;;;;;;;9.10;5.87;;;8.00;1.00;;;;;;6126666;23;20171;-86
2023/05/05 04:08:48;;;;;;;6.93;5.60;;;7.90;1.00;;;;;;6148489;23;20209;-87
2023/05/05 04:11:13;;;;;;;8.30;5.97;;;8.00;1.00;;;;;;6121735;23;20195;-87
2023/05/05 04:13:39;;;;;;;6.47;5.47;;;8.00;1.00;;;;;;6148519;23;20158;-88
2023/05/05 04:16:05;;;;;;;6.00;5.40;;;8.10;1.00;;;;;;6122093;23;20194;-88
2023/05/05 04:18:30;;;;;;;5.47;4.97;;;8.10;1.00;;;;;;6122264;23;20156;-87
2023/05/05 04:20:56;;;;;;;6.43;5.80;;;8.10;1.00;;;;;;6121529;23;20611;-87
2023/05/05 04:23:21;;;;;;;7.60;5.43;;;8.10;1.00;;;;;;6122416;23;20243;-87
2023/05/05 04:25:47;;;;;;;7.27;5.90;;;8.20;1.00;;;;;;6122031;23;20682;-87
2023/05/05 04:28:13;;;;;;;10.53;5.77;;;8.20;1.00;;;;;;6148137;23;20155;-87
2023/05/05 04:30:38;;;;;;;6.43;5.73;;;8.20;1.00;;;;;;6147879;23;20190;-87
2023/05/05 04:33:04;;;;;;;5.57;5.07;;;8.20;1.00;;;;;;6121954;23;20187;-88
2023/05/05 04:35:29;;;;;;;6.43;5.73;;;8.20;1.00;;;;;;6122378;23;20163;-89
2023/05/05 04:37:55;;;;;;;6.90;5.30;;;8.20;1.00;;;;;;6122145;23;20163;-87
2023/05/05 04:40:21;;;;;;;7.00;6.20;;;8.30;1.00;;;;;;6122131;23;20159;-87
2023/05/05 04:42:46;;;;;;;7.03;5.23;;;8.30;1.00;;;;;;6121797;23;20655;-86
2023/05/05 04:45:12;;;;;;;6.17;5.57;;;8.40;1.00;;;;;;6122441;23;20555;-87
2023/05/05 04:47:38;;;;;;;6.50;5.40;;;8.40;1.00;;;;;;6121933;23;20167;-87
2023/05/05 04:50:04;;;;;;;8.80;6.00;;;8.40;1.00;;;;;;6121828;23;20230;-87
2023/05/05 04:52:30;;;;;;;7.40;5.67;;;8.40;1.00;;;;;;6121666;23;20180;-87
2023/05/05 04:54:56;;;;;;;7.53;5.20;;;8.50;1.00;;;;;;6147967;23;20156;-87
2023/05/05 04:57:21;;;;;;;6.73;5.23;;;8.60;1.00;;;;;;6121721;23;20163;-87
2023/05/05 04:59:47;;;;;;;7.00;5.13;;;8.90;1.00;;;;;;6121983;23;20152;-87
2023/05/05 05:02:12;;;;;;;6.03;5.33;;;9.60;1.00;;;;;;6121488;23;20180;-87
2023/05/05 05:04:38;;;;;;;5.10;4.53;;;10.70;1.00;;;;;;6148027;23;20170;-88
2023/05/05 05:07:03;;;;;;;6.63;4.40;;;12.10;1.00;;;;;;6148106;23;20152;-88
2023/05/05 05:09:29;;;;;;;5.13;4.20;;;13.10;1.00;;;;;;6121102;23;20278;-87
2023/05/05 05:11:59;;;;;;;6.90;4.40;;;13.80;1.00;;;;;;6129237;23;20199;-88
2023/05/05 05:14:26;;;;;;;5.95;4.03;;;14.90;1.00;;;;;;6129772;23;20148;-88
2023/05/05 05:16:52;;;;;;;6.03;4.10;;;15.20;1.00;;;;;;6129417;23;20175;-88
2023/05/05 05:19:18;;;;;;;4.43;4.03;;;15.30;1.00;;;;;;6129673;23;20159;-89
2023/05/05 05:21:43;;;;;;;6.10;4.55;;;15.90;1.00;;;;;;6129622;23;20508;-88
2023/05/05 05:24:10;;;;;;;5.43;4.22;;;17.10;1.00;;;;;;6129551;23;20187;-88
2023/05/05 05:26:36;;;;;;;4.70;3.70;;;17.20;1.00;;;;;;6129763;23;20171;-89
2023/05/05 05:29:03;;;;;;;4.90;3.78;;;17.80;1.00;;;;;;6129912;23;20163;-88
2023/05/05 05:31:29;;;;;;;3.47;3.17;;;18.40;1.00;;;;;;6129415;23;20191;-89
2023/05/05 05:33:55;;;;;;;4.38;3.30;;;18.90;1.00;;;;;;6129797;23;20246;-89
2023/05/05 05:36:20;;;;;;;5.47;3.50;;;19.50;1.00;;;;;;6130066;23;20159;-88
2023/05/05 05:38:46;;;;;;;4.63;3.70;;;20.20;1.00;;;;;;6129888;23;20159;-89
2023/05/05 05:41:12;;;;;;;5.20;3.58;;;19.70;1.00;;;;;;6129487;23;20166;-90
2023/05/05 05:43:37;;;;;;;3.90;3.50;;;19.40;1.00;;;;;;6129607;23;20167;-89
2023/05/05 05:46:03;;;;;;;4.82;3.72;;;19.40;1.00;;;;;;6105567;23;20174;-89
2023/05/05 05:48:28;;;;;;;5.93;3.90;;;19.50;1.00;;;;;;6129801;23;20255;-89
2023/05/05 05:50:55;;;;;;;4.57;3.60;;;19.50;1.00;;;;;;6129464;23;20179;-88
2023/05/05 05:53:21;;;;;;;4.30;3.90;;;20.60;1.00;;;;;;6129397;23;20163;-88
2023/05/05 05:55:47;;;;;;;5.90;4.20;;;19.90;1.00;;;;;;6129169;23;20198;-88
2023/05/05 05:58:13;;;;;;;6.32;4.13;;;20.50;1.00;;;;;;6129156;23;20155;-88
2023/05/05 06:00:38;;;;;;;5.80;3.90;;;20.10;1.00;;;;;;6129155;23;20246;-89
2023/05/05 06:03:04;;;;;;;4.50;3.80;;;20.30;1.00;;;;;;6128962;23;20183;-88
2023/05/05 06:05:30;;;;;;;7.82;3.97;;;19.80;1.00;;;;;;6129152;23;20230;-88
2023/05/05 06:07:56;;;;;;;6.60;4.05;;;21.10;1.00;;;;;;6128913;23;20589;-89
2023/05/05 06:10:22;;;;;;;4.32;3.90;;;21.00;1.00;;;;;;6128838;23;20184;-88
2023/05/05 06:12:52;;;;;;;5.97;3.70;;;20.30;1.00;;;;;;6128878;23;20180;-88
2023/05/05 06:15:18;;;;;;;4.05;3.60;;;19.30;1.00;;;;;;6129202;23;20148;-88
2023/05/05 06:17:43;;;;;;;6.60;4.10;;;19.50;1.00;;;;;;6129212;23;20623;-88
2023/05/05 06:20:10;;;;;;;5.68;4.40;;;20.60;1.00;;;;;;6129702;23;20320;-89
2023/05/05 06:22:35;;;;;;;6.53;4.38;;;20.70;1.00;;;;;;6130683;23;20180;-89
2023/05/05 06:25:01;;;;;;;4.05;3.65;;;20.20;1.00;;;;;;6131179;23;20170;-89
2023/05/05 06:27:26;;;;;;;4.57;4.18;;;20.60;1.00;;;;;;6133333;23;20510;-88
2023/05/05 06:29:54;;;;;;;6.15;5.25;;;21.80;1.00;;;;;;6129371;23;20158;-88
2023/05/05 06:32:21;;;;;;;5.85;4.70;;;20.70;1.00;;;;;;6123947;23;20627;-89
2023/05/05 06:34:47;;;;;;;8.35;5.03;;;20.40;1.00;;;;;;6124895;23;20148;-88
2023/05/05 06:37:13;;;;;;;6.78;4.53;;;20.50;1.00;;;;;;6125257;23;20198;-89
2023/05/05 06:39:43;;;;;;;7.65;4.85;;;21.80;1.00;;;;;;6124619;23;20250;-89
2023/05/05 06:42:08;;;;;;;7.28;4.90;;;21.30;1.00;;;;;;6128771;23;20180;-89
2023/05/05 06:44:35;;;;;;;6.90;5.18;;;22.20;1.00;;;;;;6130933;23;20218;-88
2023/05/05 06:47:02;;;;;;;6.75;5.43;;;22.20;1.00;;;;;;6150543;23;20221;-88
2023/05/05 06:49:27;;;;;;;7.85;5.43;;;21.90;1.00;;;;;;6125100;23;20167;-89
2023/05/05 06:51:53;;;;;;;5.88;5.28;;;21.40;1.00;;;;;;6124303;23;20199;-87
2023/05/05 06:54:18;;;;;;;5.55;5.05;;;21.50;1.00;;;;;;6123411;23;20268;-88
2023/05/05 06:56:44;;;;;;;6.07;5.47;;;22.10;1.00;;;;;;6124028;23;20151;-88
2023/05/05 06:59:10;;;;;;;6.03;4.97;;;21.50;1.00;;;;;;6126828;23;20168;-90
2023/05/05 07:01:36;;;;;;;6.18;5.22;;;22.10;1.00;;;;;;6150974;23;20175;-89
2023/05/05 07:04:01;;;;;;;6.70;5.35;;;22.10;1.00;;;;;;6125502;23;20162;-89
2023/05/05 07:06:27;;;;;;;8.13;5.60;;;22.50;1.00;;;;;;6123511;23;20303;-86
2023/05/05 07:08:52;;;;;;;6.72;5.40;;;22.10;1.00;;;;;;6149608;23;20159;-88
2023/05/05 07:11:18;;;;;;;8.77;5.18;;;21.10;1.00;;;;;;6122978;23;20187;-86
2023/05/05 07:13:44;;;;;;;5.85;5.35;;;20.30;1.00;;;;;;6148980;23;20152;-86
2023/05/05 07:16:09;;;;;;;6.30;5.10;;;19.10;1.00;;;;;;6123075;23;20182;-86
2023/05/05 07:18:35;;;;;;;7.45;5.80;;;18.10;1.00;;;;;;6149189;23;20136;-88
2023/05/05 07:21:01;;;;;;;6.22;5.47;;;16.80;1.00;;;;;;6122648;23;20226;-87
2023/05/05 07:23:26;;;;;;;6.97;6.13;;;15.90;1.00;;;;;;6123941;23;20180;-87
2023/05/05 07:25:53;;;;;;;8.77;6.00;;;15.70;1.00;;;;;;6125264;23;20250;-87
2023/05/05 07:28:21;;;;;;;8.45;5.80;;;15.60;1.00;;;;;;6148316;23;20600;-86
2023/05/05 07:30:46;;;;;;;8.75;5.95;;;16.00;1.00;;;;;;6122282;23;20187;-87
2023/05/05 07:33:13;;;;;;;10.80;6.25;;;15.40;1.00;;;;;;6122357;23;20180;-87
2023/05/05 07:35:39;;;;;;;6.35;5.75;;;15.50;1.00;;;;;;6120925;23;20629;-87
2023/05/05 07:38:04;;;;;;;11.73;6.50;;;15.70;1.00;;;;;;6144970;23;20516;-88
2023/05/05 07:40:30;;;;;;;10.32;6.30;;;15.50;1.00;;;;;;6144274;23;20162;-87
2023/05/05 07:42:56;;;;;;;10.15;6.30;;;16.10;1.00;;;;;;6118376;23;20266;-88
2023/05/05 07:45:21;;;;;;;11.90;6.30;;;16.60;1.00;;;;;;6118408;23;20211;-87
2023/05/05 07:47:47;;;;;;;9.40;6.30;;;16.00;1.00;;;;;;6118632;23;20532;-87
2023/05/05 07:50:13;;;;;;;7.78;6.38;;;15.80;1.00;;;;;;6118167;23;20183;-87
2023/05/05 07:52:38;;;;;;;6.40;5.80;;;16.00;1.00;;;;;;6119516;23;20187;-87
2023/05/05 07:55:04;;;;;;;6.28;5.68;;;16.10;1.00;;;;;;6119484;23;20578;-87
2023/05/05 07:57:30;;;;;;;7.05;6.35;;;16.00;1.00;;;;;;6117982;23;20333;-87
2023/05/05 07:59:55;;;;;;;9.10;5.97;;;15.80;1.00;;;;;;6117464;23;20171;-87
2023/05/05 08:02:21;;;;;;;6.85;5.70;;;15.90;1.00;;;;;;6116994;23;20184;-87
2023/05/05 08:04:47;;;;;;;8.15;6.53;;;16.00;1.00;;;;;;6118763;23;20593;-87
2023/05/05 08:07:12;;;;;;;7.65;6.55;;;16.00;1.00;;;;;;6117688;23;20637;-87
2023/05/05 08:09:38;;;;;;;8.35;6.65;;;15.90;1.00;;;;;;6144735;23;20140;-87
2023/05/05 08:12:03;;;;;;;8.73;6.50;;;15.90;1.00;;;;;;6119528;23;20196;-86
2023/05/05 08:14:30;;;;;;;9.05;6.38;;;16.20;1.00;;;;;;6117748;23;20181;-87
2023/05/05 08:16:55;;;;;;;12.93;7.00;;;17.30;1.00;;;;;;6144732;23;20171;-87
2023/05/05 08:19:22;;;;;;;9.60;6.13;;;16.70;1.00;;;;;;6117665;23;20167;-87
2023/05/05 08:21:48;;;;;;;10.90;7.13;;;17.10;1.00;;;;;;6116871;23;20192;-87
2023/05/05 08:24:13;;;;;;;7.05;6.35;;;17.50;1.00;;;;;;6117439;23;20612;-86
2023/05/05 08:26:39;;;;;;;7.72;6.40;;;18.10;1.00;;;;;;6118019;23;20170;-87
2023/05/05 08:29:04;;;;;;;9.38;6.32;;;18.00;1.00;;;;;;6117222;23;20737;-87
2023/05/05 08:31:35;;;;;;;15.00;6.82;;;17.20;1.00;;;;;;6118467;23;20195;-88
2023/05/05 08:34:01;;;;;;;7.18;5.35;;;17.10;1.00;;;;;;6117379;23;20166;-88
2023/05/05 08:36:27;;;;;;;10.13;6.50;;;17.30;1.00;;;;;;6116981;23;20658;-88
2023/05/05 08:38:53;;;;;;;9.40;5.72;;;17.40;1.00;;;;;;6119576;23;20155;-88
2023/05/05 09:17:34;;;;;;;5.68;4.80;;;17.90;1.00;;;;;;6158816;23;20408;-87
2023/05/05 09:20:06;;;;;;;7.53;4.90;;;18.60;1.00;;;;;;6127916;23;20210;-88
2023/05/05 09:22:42;;;;;;;6.72;4.80;;;18.00;1.00;;;;;;6128344;23;20483;-87
2023/05/05 09:28:13;;;;;;;6.68;4.57;;;18.30;1.00;;;;;;6147272;23;20183;-91
2023/05/05 09:30:43;;;;;;;6.55;4.63;;;19.10;1.00;;;;;;6121844;23;20195;-91
2023/05/05 09:33:09;;;;;;;5.07;4.25;;;19.10;1.00;;;;;;6119080;23;20184;-91
2023/05/05 09:36:07;;;;;;;6.55;4.32;;;19.10;1.00;;;;;;6118561;23;20220;-91
2023/05/05 09:38:35;;;;;;;5.40;4.65;;;19.10;1.00;;;;;;6074113;23;20595;-91
2023/05/05 09:41:01;;;;;;;4.93;4.40;;;19.60;1.00;;;;;;6123564;23;20163;-91
2023/05/05 09:43:26;;;;;;;5.10;3.97;;;19.90;1.00;;;;;;6122248;23;20167;-91
2023/05/05 09:46:05;;;;;;;11.93;4.80;;;20.00;1.00;;;;;;6120674;23;20203;-91
2023/05/05 09:48:31;;;;;;;7.00;4.30;;;20.00;1.00;;;;;;6122029;23;20267;-90
2023/05/05 09:50:58;;;;;;;9.20;4.22;;;19.70;1.00;;;;;;6123248;23;20191;-90
2023/05/05 09:53:25;;;;;;;5.63;4.53;;;19.90;1.00;;;;;;6122782;23;20242;-89
2023/05/05 09:55:59;;;;;;;5.20;4.70;;;20.10;1.00;;;;;;6123361;23;20865;-91
2023/05/05 09:58:27;;;;;;;4.85;3.70;;;20.10;1.00;;;;;;6123853;23;20155;-91
2023/05/05 10:00:53;;;;;;;6.68;4.55;;;20.60;1.00;;;;;;6124100;23;20167;-91
2023/05/05 10:03:20;;;;;;;6.70;4.28;;;20.80;1.00;;;;;;6123760;23;20184;-90
2023/05/05 10:05:57;;;;;;;8.50;4.70;;;20.90;1.00;;;;;;6123856;23;20160;-91
2023/05/05 10:08:29;;;;;;;6.25;4.00;;;20.80;1.00;;;;;;6124091;23;20163;-90
2023/05/05 10:11:05;;;;;;;6.75;4.32;;;20.70;1.00;;;;;;6123719;23;20191;-91
2023/05/05 10:13:36;;;;;;;7.35;3.95;;;20.60;1.00;;;;;;6123987;23;20156;-91
2023/05/05 10:16:03;;;;;;;6.55;4.03;;;20.50;1.00;;;;;;6125026;23;20536;-92
2023/05/05 10:18:44;;;;;;;7.35;3.72;;;20.40;1.00;;;;;;6127787;23;20179;-92
2023/05/05 10:21:12;;;;;;;5.30;3.92;;;20.40;1.00;;;;;;6131299;23;20225;-91
2023/05/05 10:23:52;;;;;;;4.25;3.63;;;21.10;1.00;;;;;;6128470;23;20170;-91
2023/05/05 10:26:21;;;;;;;6.45;3.90;;;20.70;1.00;;;;;;6128981;23;20179;-92
2023/05/05 10:28:55;;;;;;;5.90;3.70;;;20.80;1.00;;;;;;6156739;23;20611;-92
2023/05/05 10:31:51;;;;;;;7.43;3.72;;;20.70;1.00;;;;;;6127477;23;20227;-92
2023/05/05 10:34:24;;;;;;;6.60;3.85;;;21.00;1.00;;;;;;6105578;23;20156;-91
2023/05/05 10:36:52;;;;;;;5.15;3.88;;;20.90;1.00;;;;;;6154031;23;20148;-90
2023/05/05 10:39:21;;;;;;;5.28;3.75;;;20.60;1.00;;;;;;6130642;23;20235;-92
2023/05/05 10:42:00;;;;;;;6.72;4.13;;;20.50;1.00;;;;;;6128757;23;20187;-92
2023/05/05 10:44:31;;;;;;;4.38;3.90;;;20.50;1.00;;;;;;6130061;23;20592;-92
2023/05/05 10:46:57;;;;;;;6.45;4.13;;;20.50;1.00;;;;;;6129271;23;20152;-91
2023/05/05 10:50:09;;;;;;;5.53;3.88;;;20.10;1.00;;;;;;6129540;23;20160;-91
2023/05/05 10:53:14;;;;;;;4.95;3.67;;;20.50;1.00;;;;;;6107118;23;20209;-92
2023/05/05 10:56:10;;;;;;;5.32;3.67;;;20.60;1.00;;;;;;6131021;23;20155;-92
2023/05/05 10:58:37;;;;;;;5.32;3.25;;;20.60;1.00;;;;;;6130563;23;20554;-91
2023/05/05 11:01:07;;;;;;;5.10;3.75;;;20.80;1.00;;;;;;6130043;23;20222;-91
2023/05/05 11:03:33;;;;;;;6.38;3.55;;;20.60;1.00;;;;;;6129817;23;20635;-91
2023/05/05 11:06:07;;;;;;;5.38;3.83;;;20.50;1.00;;;;;;6128058;23;20234;-91
2023/05/05 11:08:37;;;;;;;5.65;4.13;;;20.00;1.00;;;;;;6128431;23;20159;-90
2023/05/05 11:11:04;;;;;;;6.22;4.40;;;19.70;1.00;;;;;;6155105;23;20567;-91
2023/05/05 11:13:30;;;;;;;6.03;4.00;;;19.70;1.00;;;;;;6127022;23;20588;-92
2023/05/05 11:15:57;;;;;;;7.03;4.50;;;19.70;1.00;;;;;;6120446;23;20167;-91
2023/05/05 11:18:35;;;;;;;6.40;3.97;;;19.30;1.00;;;;;;6122556;23;20168;-90
2023/05/05 11:21:24;;;;;;;8.20;3.97;;;19.30;1.00;;;;;;6121961;23;20160;-91
2023/05/05 11:23:51;;;;;;;5.85;4.28;;;19.10;1.00;;;;;;6122043;23;21001;-91
2023/05/05 11:26:37;;;;;;;6.82;4.25;;;18.90;1.00;;;;;;6148239;23;20175;-91
2023/05/05 11:29:14;;;;;;;6.25;4.18;;;19.70;1.00;;;;;;6122499;23;20163;-91
2023/05/05 11:31:43;;;;;;;9.77;4.55;;;18.90;1.00;;;;;;6127379;23;20199;-91
2023/05/05 11:34:27;;;;;;;8.70;4.13;;;18.70;1.00;;;;;;6125491;23;20167;-91
2023/05/05 11:37:02;;;;;;;16.42;4.45;;;19.50;1.00;;;;;;6127067;23;20170;-91
2023/05/05 11:39:49;;;;;;;16.88;5.25;;;18.70;1.00;;;;;;6123902;23;20610;-91
2023/05/05 11:42:23;;;;;;;19.00;5.63;;;18.90;1.00;;;;;;6124240;23;20258;-91
2023/05/05 11:44:49;;;;;;;24.63;5.68;;;18.90;1.00;;;;;;6124890;23;20166;-90
2023/05/05 11:47:14;;;;;;;8.13;4.50;;;19.10;1.00;;;;;;6124733;23;20226;-91
2023/05/05 11:49:40;;;;;;;13.38;5.13;;;19.10;1.00;;;;;;6124773;23;20541;-91
2023/05/05 11:52:13;;;;;;;8.25;4.25;;;19.10;1.00;;;;;;6124718;23;20808;-90
2023/05/05 11:54:47;;;;;;;7.82;4.38;;;19.80;1.00;;;;;;6154653;23;20517;-90
2023/05/05 11:57:16;;;;;;;7.65;4.50;;;19.40;1.00;;;;;;6155382;23;20171;-89
2023/05/05 11:59:50;;;;;;;6.18;4.32;;;19.60;1.00;;;;;;6129463;23;20159;-89
2023/05/05 12:02:16;;;;;;;4.90;4.38;;;19.50;1.00;;;;;;6129654;23;20198;-91
2023/05/05 12:04:42;;;;;;;5.13;4.40;;;18.80;1.00;;;;;;6129846;23;20160;-89
2023/05/05 12:07:20;;;;;;;8.75;5.07;;;18.80;1.00;;;;;;6129523;23;20259;-89
2023/05/05 12:09:47;;;;;;;6.45;5.13;;;18.80;1.00;;;;;;6125118;23;20160;-88
2023/05/05 12:12:13;;;;;;;6.10;5.13;;;19.30;1.00;;;;;;6129044;23;20624;-89
2023/05/05 12:14:52;;;;;;;7.57;5.13;;;18.10;1.00;;;;;;6128744;23;20156;-88
2023/05/05 12:17:24;;;;;;;6.57;5.53;;;18.70;1.00;;;;;;6127013;23;20162;-89
2023/05/05 12:24:28;;;;;;;;;;;;;;;;;;;;;
2023/05/05 12:31:26;;;;;;;;;;;;;;;;;;;;;
2023/05/05 12:34:19;;;;;;;;;;;;;;;;;;;;;
2023/05/05 12:36:56;;;;;;;9.52;5.97;;;18.60;1.00;;;;;;6075584;23;21029;-90
2023/05/05 12:39:22;;;;;;;7.63;6.00;;;18.70;1.00;;;;;;6128314;23;20163;-88
2023/05/05 12:46:02;;;;;;;7.00;6.28;;;18.60;1.00;;;;;;6154036;23;20178;-89
2023/05/05 12:48:28;;;;;;;6.95;6.25;;;18.40;1.00;;;;;;6128083;23;20164;-89
2023/05/05 12:50:53;;;;;;;7.07;6.35;;;17.90;1.00;;;;;;6127831;23;20234;-89
2023/05/05 12:54:05;;;;;;;8.18;6.43;;;18.50;1.00;;;;;;6127455;23;20202;-89
2023/05/05 12:56:33;;;;;;;6.20;5.60;;;18.40;1.00;;;;;;6118741;23;20626;-89
2023/05/05 12:59:00;;;;;;;6.70;6.07;;;18.40;1.00;;;;;;6126977;23;20160;-88
2023/05/05 13:01:27;;;;;;;7.22;5.88;;;18.30;1.00;;;;;;6125320;23;20652;-89
2023/05/05 13:04:28;;;;;;;8.85;5.47;;;18.30;1.00;;;;;;6124005;23;20552;-89
2023/05/05 13:07:11;;;;;;;6.40;5.47;;;18.60;1.00;;;;;;6123025;23;20175;-90
2023/05/05 13:09:37;;;;;;;7.95;5.95;;;19.30;1.00;;;;;;6126245;23;20615;-89
2023/05/05 13:12:05;;;;;;;7.30;6.10;;;18.40;1.00;;;;;;6125908;23;20203;-90
2023/05/05 13:14:32;;;;;;;6.40;5.72;;;18.40;1.00;;;;;;6129346;23;20207;-91
2023/05/05 13:17:01;;;;;;;7.70;5.78;;;18.60;1.00;;;;;;6101912;23;20159;-89
2023/05/05 13:27:26;;;;;;;8.27;4.68;;;19.30;1.00;;;;;;6151502;23;20207;-85
2023/05/05 13:29:52;;;;;;;5.65;4.35;;;19.50;1.00;;;;;;6126423;23;20156;-85
2023/05/05 13:32:18;;;;;;;6.22;4.30;;;19.50;1.00;;;;;;6127397;23;20187;-85
2023/05/05 13:34:44;;;;;;;7.05;4.65;;;20.90;1.00;;;;;;6127912;23;20176;-86
2023/05/05 13:37:09;;;;;;;6.32;4.35;;;20.10;1.00;;;;;;6128493;23;20591;-86
2023/05/05 13:39:35;;;;;;;5.80;4.07;;;20.50;1.00;;;;;;6128979;23;20159;-85
2023/05/05 13:42:01;;;;;;;5.45;4.07;;;20.20;1.00;;;;;;6153019;23;20179;-85
2023/05/05 13:44:27;;;;;;;7.50;3.90;;;20.20;1.00;;;;;;6121728;23;20505;-86
2023/05/05 13:46:52;;;;;;;4.45;4.00;;;20.30;1.00;;;;;;6148303;23;20156;-86
2023/05/05 13:49:18;;;;;;;6.50;3.95;;;20.70;1.00;;;;;;6122047;23;20234;-89
2023/05/05 13:51:45;;;;;;;4.97;3.53;;;21.00;1.00;;;;;;6123492;23;20274;-86
2023/05/05 13:54:11;;;;;;;4.10;3.60;;;20.60;1.00;;;;;;6122928;23;20560;-86
2023/05/05 13:56:37;;;;;;;6.10;3.75;;;20.60;1.00;;;;;;6121673;23;20154;-85
2023/05/05 13:59:02;;;;;;;7.93;4.18;;;20.80;1.00;;;;;;6120451;23;20247;-85
2023/05/05 14:01:28;;;;;;;6.00;4.13;;;20.50;1.00;;;;;;6146417;23;20224;-85
2023/05/05 14:03:55;;;;;;;6.30;4.13;;;20.60;1.00;;;;;;6120289;23;20205;-84
2023/05/05 14:06:20;;;;;;;7.68;3.83;;;20.40;1.00;;;;;;6121109;23;20168;-86
2023/05/05 14:08:46;;;;;;;8.25;3.42;;;20.70;1.00;;;;;;6121456;23;20210;-85
2023/05/05 14:11:13;;;;;;;7.13;3.70;;;20.40;1.00;;;;;;6123372;23;20694;-86
2023/05/05 14:13:38;;;;;;;6.70;3.15;;;20.50;1.00;;;;;;6122501;23;20148;-83